Time;durP1;ratioP1;P1;durP2;ratioP2;P2;SDS_P1;SDS_P2;PMS_P1;PMS_P2;Temp;Humidity;BMP_temperature;BMP_pressure;BME280_temperature;BME280_humidity;BME280_pressure;Samples;Min_cycle;Max_cycle;Signal;HPM_P1;HPM_P2
2023/07/13 00:00:09;;;;;;;8.50;7.50;;;;;;;;;;107888;1260;40071;-39
2023/07/13 00:03:03;;;;;;;8.30;7.40;;;;;;;;;;107905;1264;39507;-39
2023/07/13 00:05:38;;;;;;;8.40;7.50;;;;;;;;;;107904;1273;41395;-38
2023/07/13 00:08:12;;;;;;;8.70;7.80;;;;;;;;;;107900;1264;42173;-39
2023/07/13 00:10:46;;;;;;;8.60;7.40;;;;;;;;;;107906;1266;40008;-39
2023/07/13 00:13:20;;;;;;;8.40;7.50;;;;;;;;;;107960;1273;40140;-38
2023/07/13 00:15:57;;;;;;;8.50;7.50;;;;;;;;;;107946;1265;40071;-38
2023/07/13 00:18:31;;;;;;;8.30;7.50;;;;;;;;;;107947;1276;40846;-39
2023/07/13 00:21:05;;;;;;;8.10;7.30;;;;;;;;;;107817;1264;99887;-39
2023/07/13 00:23:42;;;;;;;8.20;7.40;;;;;;;;;;107907;1276;41370;-38
2023/07/13 00:26:17;;;;;;;8.70;7.80;;;;;;;;;;107907;1272;40644;-39
2023/07/13 00:28:51;;;;;;;8.60;7.70;;;;;;;;;;107876;1276;41003;-39
2023/07/13 00:31:25;;;;;;;8.40;7.40;;;;;;;;;;107876;1262;41306;-39
2023/07/13 00:34:00;;;;;;;8.60;7.70;;;;;;;;;;107943;1276;40292;-39
2023/07/13 00:36:34;;;;;;;8.40;7.50;;;;;;;;;;107960;1273;39911;-39
2023/07/13 00:39:08;;;;;;;8.10;7.30;;;;;;;;;;107929;1261;41155;-39
2023/07/13 00:41:43;;;;;;;8.50;7.50;;;;;;;;;;107905;1261;40080;-39
2023/07/13 00:44:19;;;;;;;8.20;7.40;;;;;;;;;;107911;1274;40327;-39
2023/07/13 00:46:55;;;;;;;8.30;7.40;;;;;;;;;;107903;1267;41710;-39
2023/07/13 00:49:33;;;;;;;9.10;7.50;;;;;;;;;;107926;1273;41245;-39
2023/07/13 00:52:12;;;;;;;8.10;7.30;;;;;;;;;;107884;1265;40396;-39
2023/07/13 00:54:49;;;;;;;7.90;7.10;;;;;;;;;;107861;1265;175163;-39
2023/07/13 00:57:24;;;;;;;7.90;7.10;;;;;;;;;;107968;1265;41244;-39
2023/07/13 01:00:06;;;;;;;8.40;7.60;;;;;;;;;;107903;1275;41479;-39
2023/07/13 01:02:44;;;;;;;8.40;7.30;;;;;;;;;;107892;1264;40188;-39
2023/07/13 01:05:22;;;;;;;8.40;7.40;;;;;;;;;;107926;1276;38761;-40
2023/07/13 01:07:56;;;;;;;8.40;7.40;;;;;;;;;;107917;1273;40156;-39
2023/07/13 01:10:38;;;;;;;8.00;7.10;;;;;;;;;;107889;1261;42184;-39
2023/07/13 01:13:13;;;;;;;7.90;7.10;;;;;;;;;;107854;1264;48608;-39
2023/07/13 01:15:50;;;;;;;8.30;7.30;;;;;;;;;;107917;1264;38712;-39
2023/07/13 01:18:28;;;;;;;8.10;7.10;;;;;;;;;;107893;1266;41537;-40
2023/07/13 01:21:04;;;;;;;8.20;7.20;;;;;;;;;;107898;1271;40846;-39
2023/07/13 01:23:38;;;;;;;8.20;7.40;;;;;;;;;;107964;1275;46995;-39
2023/07/13 01:26:12;;;;;;;8.30;7.50;;;;;;;;;;107952;1265;39699;-39
2023/07/13 01:28:47;;;;;;;7.90;7.10;;;;;;;;;;107980;1273;41355;-39
2023/07/13 01:31:21;;;;;;;8.20;7.40;;;;;;;;;;107980;1269;41113;-39
2023/07/13 01:33:57;;;;;;;8.50;7.00;;;;;;;;;;107969;1263;46107;-39
2023/07/13 01:36:31;;;;;;;7.70;6.90;;;;;;;;;;107978;1272;39269;-39
2023/07/13 01:39:05;;;;;;;8.20;7.30;;;;;;;;;;107989;1263;40164;-39
2023/07/13 01:41:39;;;;;;;8.30;7.30;;;;;;;;;;107968;1263;41185;-39
2023/07/13 01:44:30;;;;;;;;;;;;;;;;;;107908;1264;46179;-38
2023/07/13 01:47:06;;;;;;;9.00;7.40;;;;;;;;;;107920;1268;38738;-38
2023/07/13 01:49:40;;;;;;;8.20;7.30;;;;;;;;;;107938;1273;41290;-39
2023/07/13 01:52:14;;;;;;;8.60;7.20;;;;;;;;;;107889;1262;42405;-39
2023/07/13 01:54:48;;;;;;;8.40;7.20;;;;;;;;;;107971;1277;45895;-39
2023/07/13 01:57:22;;;;;;;8.80;7.70;;;;;;;;;;107954;1261;38775;-39
2023/07/13 01:59:56;;;;;;;7.80;7.00;;;;;;;;;;107989;1265;40229;-40
2023/07/13 02:02:30;;;;;;;7.90;7.10;;;;;;;;;;107953;1271;41505;-40
2023/07/13 02:05:04;;;;;;;8.50;7.60;;;;;;;;;;107901;1267;47158;-40
2023/07/13 02:07:39;;;;;;;8.20;7.10;;;;;;;;;;107912;1272;40063;-40
2023/07/13 02:10:14;;;;;;;8.00;7.10;;;;;;;;;;107909;1276;40405;-40
2023/07/13 02:12:49;;;;;;;8.30;7.40;;;;;;;;;;107876;1264;42139;-40
2023/07/13 02:15:23;;;;;;;8.40;7.40;;;;;;;;;;107948;1272;46342;-40
2023/07/13 02:17:56;;;;;;;8.50;7.30;;;;;;;;;;107945;1276;38754;-39
2023/07/13 02:20:30;;;;;;;8.30;7.40;;;;;;;;;;107959;1277;40046;-39
2023/07/13 02:23:04;;;;;;;9.00;7.20;;;;;;;;;;107915;1263;42335;-39
2023/07/13 02:25:42;;;;;;;7.90;7.10;;;;;;;;;;107893;1276;47618;-39
2023/07/13 02:28:16;;;;;;;8.20;7.40;;;;;;;;;;107852;1272;38750;-39
2023/07/13 02:30:49;;;;;;;8.00;7.20;;;;;;;;;;107899;1274;41686;-39
2023/07/13 02:33:23;;;;;;;8.30;7.40;;;;;;;;;;107860;1274;41198;-39
2023/07/13 02:35:57;;;;;;;8.50;7.60;;;;;;;;;;107944;1275;47218;-39
2023/07/13 02:38:33;;;;;;;8.60;7.50;;;;;;;;;;107904;1269;38850;-40
2023/07/13 02:41:08;;;;;;;8.60;7.70;;;;;;;;;;107930;1275;41760;-39
2023/07/13 02:43:43;;;;;;;8.20;7.30;;;;;;;;;;107918;1275;41106;-39
2023/07/13 02:46:16;;;;;;;8.00;7.20;;;;;;;;;;107908;1273;46257;-39
2023/07/13 02:48:50;;;;;;;8.70;7.40;;;;;;;;;;107893;1274;40517;-39
2023/07/13 02:51:24;;;;;;;8.00;7.20;;;;;;;;;;107914;1264;40303;-39
2023/07/13 02:53:58;;;;;;;8.70;7.40;;;;;;;;;;107871;1274;41198;-39
2023/07/13 02:56:33;;;;;;;7.90;7.10;;;;;;;;;;107839;1274;45680;-39
2023/07/13 02:59:07;;;;;;;7.90;7.10;;;;;;;;;;107854;1266;40629;-39
2023/07/13 03:01:41;;;;;;;8.40;7.50;;;;;;;;;;107740;1267;175417;-39
2023/07/13 03:04:19;;;;;;;7.70;6.90;;;;;;;;;;107799;1275;41362;-39
2023/07/13 03:06:52;;;;;;;8.10;7.30;;;;;;;;;;107760;1273;48548;-39
2023/07/13 03:09:26;;;;;;;7.70;6.90;;;;;;;;;;107780;1273;38788;-39
2023/07/13 03:12:00;;;;;;;7.90;7.10;;;;;;;;;;107757;1267;41825;-40
2023/07/13 03:14:34;;;;;;;7.90;7.10;;;;;;;;;;107733;1276;41091;-39
2023/07/13 03:17:08;;;;;;;7.60;6.70;;;;;;;;;;107833;1275;46726;-39
2023/07/13 03:19:43;;;;;;;7.60;6.80;;;;;;;;;;107818;1275;38794;-40
2023/07/13 03:22:17;;;;;;;8.30;6.90;;;;;;;;;;107857;1262;40411;-40
2023/07/13 03:24:52;;;;;;;7.70;6.90;;;;;;;;;;107824;1278;41404;-39
2023/07/13 03:27:26;;;;;;;8.00;7.20;;;;;;;;;;107775;1276;48666;-40
2023/07/13 03:30:00;;;;;;;8.00;7.00;;;;;;;;;;107800;1267;38921;-39
2023/07/13 03:32:33;;;;;;;7.30;6.60;;;;;;;;;;107797;1274;40428;-39
2023/07/13 03:35:10;;;;;;;7.40;6.60;;;;;;;;;;107754;1278;42325;-39
2023/07/13 03:37:44;;;;;;;7.30;6.60;;;;;;;;;;107830;1268;45806;-40
2023/07/13 03:40:20;;;;;;;8.60;6.90;;;;;;;;;;107719;1278;175120;-39
2023/07/13 03:42:54;;;;;;;7.80;6.50;;;;;;;;;;107827;1278;40111;-39
2023/07/13 03:45:28;;;;;;;7.70;6.70;;;;;;;;;;107771;1271;41054;-39
2023/07/13 03:48:02;;;;;;;7.20;6.40;;;;;;;;;;107762;1266;45931;-39
2023/07/13 03:50:35;;;;;;;7.20;6.50;;;;;;;;;;107790;1274;38892;-39
2023/07/13 03:53:09;;;;;;;7.00;6.30;;;;;;;;;;107803;1267;41680;-39
2023/07/13 03:55:44;;;;;;;7.50;6.70;;;;;;;;;;107839;1267;40951;-39
2023/07/13 03:58:36;;;;;;;7.90;6.70;;;;;;;;;;107948;1275;45410;-39
2023/07/13 04:01:10;;;;;;;;;;;;;;;;;;108029;1277;39057;-41
2023/07/13 04:03:46;;;;;;;7.80;6.70;;;;;;;;;;107929;1275;40152;-39
2023/07/13 04:06:26;;;;;;;7.30;6.60;;;;;;;;;;107932;1261;41803;-39
2023/07/13 04:09:05;;;;;;;7.50;6.80;;;;;;;;;;107933;1273;40124;-40
2023/07/13 04:11:39;;;;;;;7.00;6.30;;;;;;;;;;107886;1274;38805;-39
2023/07/13 04:14:13;;;;;;;6.80;6.10;;;;;;;;;;107802;1260;175495;-39
2023/07/13 04:16:49;;;;;;;7.90;6.70;;;;;;;;;;107868;1261;41011;-39
2023/07/13 04:19:24;;;;;;;7.60;6.80;;;;;;;;;;107969;1266;41263;-40
2023/07/13 04:21:57;;;;;;;7.20;6.30;;;;;;;;;;107949;1265;38720;-39
2023/07/13 04:24:31;;;;;;;7.80;7.00;;;;;;;;;;107939;1274;39933;-39
2023/07/13 04:27:06;;;;;;;7.50;6.40;;;;;;;;;;107849;1262;41069;-40
2023/07/13 04:29:40;;;;;;;7.30;6.60;;;;;;;;;;107906;1267;39996;-39
2023/07/13 04:32:14;;;;;;;7.10;6.40;;;;;;;;;;107905;1274;39332;-39
2023/07/13 04:34:49;;;;;;;7.30;6.60;;;;;;;;;;107894;1276;40098;-39
2023/07/13 04:37:24;;;;;;;7.50;6.20;;;;;;;;;;107880;1264;42321;-40
2023/07/13 04:39:58;;;;;;;7.70;6.80;;;;;;;;;;107944;1266;40187;-40
2023/07/13 04:42:34;;;;;;;8.30;6.80;;;;;;;;;;107925;1275;38728;-40
2023/07/13 04:45:10;;;;;;;7.50;6.40;;;;;;;;;;107955;1266;41821;-40
2023/07/13 04:47:44;;;;;;;7.40;6.50;;;;;;;;;;107893;1264;41001;-39
2023/07/13 04:50:22;;;;;;;7.30;6.40;;;;;;;;;;107889;1274;40363;-39
2023/07/13 04:52:57;;;;;;;7.40;6.60;;;;;;;;;;107895;1275;39124;-40
2023/07/13 04:55:30;;;;;;;7.90;6.60;;;;;;;;;;107910;1265;41214;-39
2023/07/13 04:58:05;;;;;;;7.70;6.90;;;;;;;;;;107897;1263;42038;-40
2023/07/13 05:00:38;;;;;;;7.50;6.70;;;;;;;;;;107970;1272;40280;-40
2023/07/13 05:03:13;;;;;;;8.00;7.20;;;;;;;;;;107942;1277;38880;-40
2023/07/13 05:05:57;;;;;;;7.40;6.60;;;;;;;;;;107948;1272;40495;-39
2023/07/13 05:08:31;;;;;;;7.50;6.70;;;;;;;;;;107953;1264;42376;-40
2023/07/13 05:11:06;;;;;;;7.60;6.80;;;;;;;;;;107899;1276;41249;-40
2023/07/13 05:13:41;;;;;;;7.90;7.00;;;;;;;;;;107930;1276;38744;-40
2023/07/13 05:16:15;;;;;;;8.00;7.20;;;;;;;;;;107884;1274;40039;-39
2023/07/13 05:18:49;;;;;;;8.70;7.20;;;;;;;;;;107788;1261;175497;-40
2023/07/13 05:21:23;;;;;;;8.10;7.30;;;;;;;;;;107961;1263;40160;-40
2023/07/13 05:23:57;;;;;;;8.30;7.50;;;;;;;;;;107922;1272;38927;-40
2023/07/13 05:26:33;;;;;;;8.00;6.90;;;;;;;;;;107950;1276;40039;-39
2023/07/13 05:29:07;;;;;;;7.90;7.10;;;;;;;;;;107918;1273;41208;-40
2023/07/13 05:31:40;;;;;;;8.20;7.40;;;;;;;;;;107762;1273;174972;-40
2023/07/13 05:34:15;;;;;;;8.90;7.50;;;;;;;;;;107904;1273;38849;-40
2023/07/13 05:36:49;;;;;;;8.50;7.70;;;;;;;;;;107925;1276;39964;-39
2023/07/13 05:39:22;;;;;;;8.40;7.20;;;;;;;;;;107896;1265;40955;-40
2023/07/13 05:41:56;;;;;;;8.10;7.20;;;;;;;;;;107949;1272;41185;-40
2023/07/13 05:44:30;;;;;;;8.10;7.30;;;;;;;;;;107839;1261;175489;-40
2023/07/13 05:47:05;;;;;;;7.80;7.00;;;;;;;;;;107960;1265;41911;-39
2023/07/13 05:49:40;;;;;;;8.10;7.30;;;;;;;;;;107878;1264;41184;-40
2023/07/13 05:52:14;;;;;;;8.60;7.70;;;;;;;;;;107919;1274;40227;-40
2023/07/13 05:54:47;;;;;;;8.60;7.30;;;;;;;;;;107894;1274;38831;-39
2023/07/13 05:57:21;;;;;;;9.00;7.60;;;;;;;;;;107879;1274;41265;-39
2023/07/13 05:59:55;;;;;;;8.60;7.60;;;;;;;;;;107871;1266;41105;-40
2023/07/13 06:02:30;;;;;;;8.70;7.80;;;;;;;;;;107961;1266;40141;-40
2023/07/13 06:05:04;;;;;;;8.40;7.60;;;;;;;;;;107983;1273;40097;-39
2023/07/13 06:07:38;;;;;;;9.00;8.00;;;;;;;;;;107963;1269;40160;-40
2023/07/13 06:10:14;;;;;;;8.30;7.40;;;;;;;;;;107824;1263;40959;-39
2023/07/13 06:12:47;;;;;;;8.30;7.50;;;;;;;;;;107875;1267;40091;-39
2023/07/13 06:15:22;;;;;;;8.80;7.90;;;;;;;;;;107835;1274;40151;-39
2023/07/13 06:17:56;;;;;;;9.10;8.10;;;;;;;;;;107818;1277;41286;-39
2023/07/13 06:20:31;;;;;;;8.90;8.00;;;;;;;;;;107880;1274;41167;-40
2023/07/13 06:23:05;;;;;;;9.30;8.30;;;;;;;;;;107946;1275;41430;-39
2023/07/13 06:25:40;;;;;;;8.80;7.90;;;;;;;;;;107945;1275;38848;-40
2023/07/13 06:28:13;;;;;;;9.70;8.40;;;;;;;;;;107934;1272;40285;-40
2023/07/13 06:30:47;;;;;;;9.90;8.90;;;;;;;;;;107819;1262;40921;-40
2023/07/13 06:33:20;;;;;;;11.50;9.10;;;;;;;;;;107860;1275;40243;-39
2023/07/13 06:35:54;;;;;;;10.50;9.40;;;;;;;;;;107825;1274;39296;-40
2023/07/13 06:38:28;;;;;;;10.40;9.30;;;;;;;;;;107826;1277;40222;-40
2023/07/13 06:41:02;;;;;;;10.60;9.50;;;;;;;;;;107900;1267;42297;-40
2023/07/13 06:43:35;;;;;;;10.20;9.20;;;;;;;;;;107934;1273;40283;-40
2023/07/13 06:46:09;;;;;;;10.90;9.80;;;;;;;;;;107948;1260;38790;-39
2023/07/13 06:48:45;;;;;;;11.20;9.90;;;;;;;;;;107935;1275;40212;-39
2023/07/13 06:51:19;;;;;;;10.80;9.70;;;;;;;;;;107780;1266;41103;-40
2023/07/13 06:53:54;;;;;;;11.90;10.40;;;;;;;;;;107883;1277;40586;-40
2023/07/13 06:56:28;;;;;;;12.10;10.00;;;;;;;;;;107802;1277;38779;-40
2023/07/13 06:59:02;;;;;;;11.00;9.80;;;;;;;;;;107844;1277;40111;-40
2023/07/13 07:01:36;;;;;;;13.40;10.80;;;;;;;;;;107915;1265;42618;-41
2023/07/13 07:04:13;;;;;;;10.80;9.70;;;;;;;;;;107972;1274;40030;-39
2023/07/13 07:06:47;;;;;;;11.30;10.10;;;;;;;;;;107949;1277;38862;-40
2023/07/13 07:09:20;;;;;;;13.30;9.50;;;;;;;;;;107952;1272;40325;-40
2023/07/13 07:11:55;;;;;;;9.90;8.80;;;;;;;;;;107973;1263;47982;-40
2023/07/13 07:14:37;;;;;;;11.00;8.40;;;;;;;;;;107956;1273;40280;-41
2023/07/13 07:17:11;;;;;;;9.30;8.20;;;;;;;;;;107936;1276;38854;-40
2023/07/13 07:19:45;;;;;;;10.10;8.60;;;;;;;;;;107971;1273;40091;-40
2023/07/13 07:22:19;;;;;;;9.50;7.90;;;;;;;;;;107906;1261;47601;-40
2023/07/13 07:24:53;;;;;;;10.10;8.10;;;;;;;;;;107878;1274;41074;-39
2023/07/13 07:27:28;;;;;;;13.70;11.60;;;;;;;;;;107904;1274;38891;-40
2023/07/13 07:30:07;;;;;;;10.20;8.70;;;;;;;;;;107838;1274;41907;-40
2023/07/13 07:32:44;;;;;;;10.70;8.70;;;;;;;;;;107933;1276;48196;-40
2023/07/13 07:35:21;;;;;;;9.60;8.60;;;;;;;;;;108077;1266;41540;-43
2023/07/13 07:37:56;;;;;;;9.50;8.10;;;;;;;;;;108053;1273;40100;-38
2023/07/13 07:40:31;;;;;;;10.20;8.00;;;;;;;;;;107866;1276;40380;-40
2023/07/13 07:43:08;;;;;;;9.80;7.50;;;;;;;;;;107912;1274;46991;-40
2023/07/13 07:45:45;;;;;;;14.10;9.50;;;;;;;;;;107238;1261;891738;-36
2023/07/13 07:48:19;;;;;;;16.30;10.80;;;;;;;;;;107959;1260;38824;-39
2023/07/13 07:50:53;;;;;;;15.40;10.80;;;;;;;;;;107845;1276;41433;-38
2023/07/13 07:53:26;;;;;;;14.40;9.80;;;;;;;;;;107902;1273;48720;-37
2023/07/13 07:56:00;;;;;;;11.70;8.90;;;;;;;;;;107948;1261;42581;-37
2023/07/13 07:58:54;;;;;;;11.20;8.10;;;;;;;;;;107926;1277;38818;-38
2023/07/13 08:01:31;;;;;;;12.60;8.50;;;;;;;;;;107884;1261;40139;-40
2023/07/13 08:04:09;;;;;;;15.40;10.10;;;;;;;;;;107903;1264;41356;-38
2023/07/13 08:07:03;;;;;;;14.40;8.90;;;;;;;;;;107878;1273;40318;-37
2023/07/13 08:09:37;;;;;;;10.00;7.40;;;;;;;;;;107889;1274;38818;-39
2023/07/13 08:12:12;;;;;;;10.20;7.40;;;;;;;;;;107845;1265;40075;-40
2023/07/13 08:14:53;;;;;;;10.20;7.70;;;;;;;;;;107881;1276;40824;-40
2023/07/13 08:17:27;;;;;;;9.80;7.20;;;;;;;;;;107922;1273;40193;-40
2023/07/13 08:20:02;;;;;;;9.70;7.50;;;;;;;;;;107929;1276;39144;-39
2023/07/13 08:22:36;;;;;;;9.00;7.50;;;;;;;;;;107778;1264;175384;-40
2023/07/13 08:25:12;;;;;;;8.40;7.00;;;;;;;;;;107890;1276;42291;-39
2023/07/13 08:27:45;;;;;;;9.00;7.00;;;;;;;;;;107946;1276;42465;-38
2023/07/13 08:30:19;;;;;;;8.10;6.10;;;;;;;;;;107903;1278;39055;-37
2023/07/13 08:32:53;;;;;;;8.10;6.40;;;;;;;;;;107881;1263;41507;-39
2023/07/13 08:35:28;;;;;;;7.40;5.90;;;;;;;;;;107968;1265;42209;-36
2023/07/13 08:38:02;;;;;;;8.90;6.10;;;;;;;;;;107944;1277;40183;-37
2023/07/13 08:40:38;;;;;;;7.00;5.60;;;;;;;;;;107934;1273;38592;-36
2023/07/13 08:43:19;;;;;;;7.70;5.80;;;;;;;;;;107827;1267;41388;-36
2023/07/13 08:45:57;;;;;;;6.40;5.40;;;;;;;;;;107818;1267;41075;-36
2023/07/13 08:48:35;;;;;;;6.80;5.60;;;;;;;;;;107863;1278;41315;-38
2023/07/13 08:51:25;;;;;;;7.10;5.80;;;;;;;;;;107843;1277;38671;-37
2023/07/13 08:54:03;;;;;;;6.90;5.40;;;;;;;;;;107927;1270;40182;-37
2023/07/13 08:56:37;;;;;;;6.10;5.20;;;;;;;;;;107933;1272;41209;-36
2023/07/13 08:59:19;;;;;;;6.30;5.20;;;;;;;;;;107929;1276;41564;-40
2023/07/13 09:02:10;;;;;;;7.40;5.90;;;;;;;;;;107944;1265;38825;-38
2023/07/13 09:04:51;;;;;;;6.80;5.50;;;;;;;;;;107838;1276;46854;-40
2023/07/13 09:07:45;;;;;;;7.20;5.70;;;;;;;;;;107867;1276;41370;-39
2023/07/13 09:10:25;;;;;;;6.30;5.10;;;;;;;;;;107888;1273;41602;-40
2023/07/13 09:13:13;;;;;;;7.00;5.70;;;;;;;;;;107859;1266;39018;-41
2023/07/13 09:15:52;;;;;;;6.80;5.40;;;;;;;;;;107902;1274;41275;-41
2023/07/13 09:18:32;;;;;;;6.60;5.80;;;;;;;;;;107968;1270;41096;-37
2023/07/13 09:21:16;;;;;;;6.50;5.30;;;;;;;;;;107917;1277;39978;-37
2023/07/13 09:23:56;;;;;;;7.40;5.30;;;;;;;;;;107860;1266;38901;-37
2023/07/13 09:26:35;;;;;;;6.90;5.50;;;;;;;;;;107906;1276;39886;-37
2023/07/13 09:29:30;;;;;;;8.40;5.40;;;;;;;;;;107865;1276;41236;-37
2023/07/13 09:32:10;;;;;;;8.30;5.50;;;;;;;;;;107918;1260;40255;-38
2023/07/13 09:34:44;;;;;;;6.90;5.40;;;;;;;;;;107905;1267;40174;-38
2023/07/13 09:37:18;;;;;;;7.40;4.80;;;;;;;;;;107961;1276;39893;-37
2023/07/13 09:39:54;;;;;;;7.20;4.50;;;;;;;;;;107933;1273;41255;-38
2023/07/13 09:42:30;;;;;;;7.20;4.40;;;;;;;;;;107939;1274;40074;-38
2023/07/13 09:45:07;;;;;;;7.90;4.00;;;;;;;;;;107864;1267;38902;-38
2023/07/13 09:47:44;;;;;;;8.00;3.80;;;;;;;;;;107914;1269;40203;-38
2023/07/13 09:50:20;;;;;;;6.00;4.10;;;;;;;;;;107895;1267;41456;-38
2023/07/13 09:52:58;;;;;;;8.20;3.90;;;;;;;;;;107748;1274;175348;-37
2023/07/13 09:55:35;;;;;;;7.60;3.80;;;;;;;;;;107896;1273;40107;-38
2023/07/13 09:58:16;;;;;;;6.10;3.60;;;;;;;;;;107957;1266;42779;-39
2023/07/13 10:01:02;;;;;;;8.20;4.00;;;;;;;;;;107945;1268;41028;-39
2023/07/13 10:03:54;;;;;;;7.20;3.80;;;;;;;;;;107928;1274;40231;-38
2023/07/13 10:06:28;;;;;;;8.40;3.80;;;;;;;;;;107841;1267;46152;-38
2023/07/13 10:09:02;;;;;;;9.40;3.90;;;;;;;;;;107854;1273;40138;-38
2023/07/13 10:11:41;;;;;;;6.80;3.80;;;;;;;;;;107866;1276;43008;-38
2023/07/13 10:14:18;;;;;;;6.20;4.10;;;;;;;;;;107820;1266;42406;-38
2023/07/13 10:17:01;;;;;;;9.00;4.20;;;;;;;;;;107908;1276;45435;-42
2023/07/13 10:19:37;;;;;;;7.80;4.20;;;;;;;;;;107254;1267;893674;-37
2023/07/13 10:22:27;;;;;;;8.80;4.40;;;;;;;;;;107904;1270;42023;-38
2023/07/13 10:25:08;;;;;;;8.30;3.90;;;;;;;;;;107876;1260;42385;-42
2023/07/13 10:27:43;;;;;;;6.50;4.10;;;;;;;;;;107913;1270;38989;-42
2023/07/13 10:30:25;;;;;;;6.00;4.10;;;;;;;;;;107864;1268;40305;-40
2023/07/13 10:33:02;;;;;;;;;;;;;;;;;;107952;1273;42130;-39
2023/07/13 10:35:38;;;;;;;6.70;4.10;;;;;;;;;;107854;1276;41859;-39
2023/07/13 10:38:28;;;;;;;6.90;4.10;;;;;;;;;;107920;1276;38945;-37
2023/07/13 10:41:07;;;;;;;5.40;4.10;;;;;;;;;;107909;1267;40332;-40
2023/07/13 10:43:45;;;;;;;6.80;4.10;;;;;;;;;;107905;1260;42067;-37
2023/07/13 10:46:23;;;;;;;6.30;4.20;;;;;;;;;;107762;1265;175398;-38
2023/07/13 10:49:02;;;;;;;5.60;4.20;;;;;;;;;;107892;1272;38821;-36
2023/07/13 10:51:37;;;;;;;8.00;4.30;;;;;;;;;;107858;1273;40408;-37
2023/07/13 10:54:23;;;;;;;6.50;4.00;;;;;;;;;;107863;1277;43004;-37
2023/07/13 10:57:18;;;;;;;6.30;4.20;;;;;;;;;;107852;1266;41024;-37
2023/07/13 11:00:19;;;;;;;5.30;3.60;;;;;;;;;;107918;1276;39070;-37
2023/07/13 11:03:02;;;;;;;7.00;4.40;;;;;;;;;;107946;1261;41278;-38
2023/07/13 11:05:43;;;;;;;6.60;3.80;;;;;;;;;;107897;1260;44158;-37
2023/07/13 11:08:38;;;;;;;5.80;3.80;;;;;;;;;;107894;1267;40694;-35
2023/07/13 11:11:41;;;;;;;7.70;3.80;;;;;;;;;;107858;1274;38937;-37
2023/07/13 11:15:06;;;;;;;5.80;3.90;;;;;;;;;;107857;1266;40486;-36
2023/07/13 11:17:51;;;;;;;6.40;4.10;;;;;;;;;;107737;1270;42006;-37
2023/07/13 11:20:40;;;;;;;6.50;3.80;;;;;;;;;;107800;1273;42224;-39
2023/07/13 11:23:33;;;;;;;6.80;4.20;;;;;;;;;;107841;1277;38837;-39
2023/07/13 11:26:42;;;;;;;6.20;4.20;;;;;;;;;;107836;1269;41354;-38
2023/07/13 11:29:37;;;;;;;6.80;4.00;;;;;;;;;;107875;1276;42062;-41
2023/07/13 11:35:14;;;;;;;5.90;3.90;;;;;;;;;;105395;1289;561859;-38
2023/07/13 11:37:49;;;;;;;6.70;3.80;;;;;;;;;;107548;1285;42714;-39
2023/07/13 11:40:29;;;;;;;6.40;3.90;;;;;;;;;;107563;1273;39923;-41
2023/07/13 11:43:08;;;;;;;6.70;4.30;;;;;;;;;;107591;1277;38785;-39
2023/07/13 11:45:43;;;;;;;6.60;3.90;;;;;;;;;;107477;1273;40753;-40
2023/07/13 11:48:31;;;;;;;6.80;4.50;;;;;;;;;;107672;1279;158095;-40
2023/07/13 11:51:08;;;;;;;7.40;4.00;;;;;;;;;;107866;1266;41135;-41
2023/07/13 11:53:48;;;;;;;5.90;4.20;;;;;;;;;;107851;1278;38733;-40
2023/07/13 11:56:23;;;;;;;6.30;4.00;;;;;;;;;;107673;1266;40234;-38
2023/07/13 11:59:04;;;;;;;6.40;4.20;;;;;;;;;;108111;1262;40857;-39
2023/07/13 12:01:46;;;;;;;5.60;3.90;;;;;;;;;;108097;1272;39896;-38
2023/07/13 12:04:26;;;;;;;;;;;;;;;;;;108131;1270;39068;-38
2023/07/13 12:07:13;;;;;;;6.10;4.10;;;;;;;;;;108025;1260;48259;-38
2023/07/13 12:09:50;;;;;;;6.30;4.20;;;;;;;;;;108093;1274;43450;-40
2023/07/13 12:12:29;;;;;;;8.10;4.50;;;;;;;;;;108028;1273;40173;-38
2023/07/13 12:15:08;;;;;;;7.30;4.50;;;;;;;;;;107999;1260;39203;-37
2023/07/13 12:17:43;;;;;;;7.80;4.70;;;;;;;;;;108110;1270;40207;-41
2023/07/13 12:20:26;;;;;;;6.80;4.40;;;;;;;;;;108178;1273;40817;-41
2023/07/13 12:23:02;;;;;;;6.60;4.30;;;;;;;;;;108110;1272;40005;-38
2023/07/13 12:25:43;;;;;;;6.10;4.00;;;;;;;;;;108009;1259;38984;-39
2023/07/13 12:28:38;;;;;;;7.20;4.40;;;;;;;;;;108018;1273;41212;-43
2023/07/13 12:31:34;;;;;;;6.00;4.10;;;;;;;;;;108015;1272;40872;-39
2023/07/13 12:34:14;;;;;;;6.10;4.30;;;;;;;;;;107996;1274;39839;-39
2023/07/13 12:36:53;;;;;;;6.60;4.30;;;;;;;;;;108014;1259;38803;-40
2023/07/13 12:39:35;;;;;;;6.50;4.20;;;;;;;;;;108058;1274;39974;-40
2023/07/13 12:42:27;;;;;;;6.20;4.10;;;;;;;;;;108087;1270;41007;-42
2023/07/13 12:45:19;;;;;;;5.70;4.40;;;;;;;;;;108077;1260;39841;-42
2023/07/13 12:47:58;;;;;;;6.70;4.70;;;;;;;;;;108059;1265;45097;-42
2023/07/13 12:50:41;;;;;;;6.10;4.50;;;;;;;;;;108173;1272;41300;-41
2023/07/13 12:53:20;;;;;;;5.70;4.10;;;;;;;;;;108223;1257;40645;-40
2023/07/13 12:55:59;;;;;;;5.30;4.00;;;;;;;;;;108191;1260;40044;-40
2023/07/13 12:58:37;;;;;;;6.10;4.30;;;;;;;;;;108216;1258;38857;-40
2023/07/13 13:01:13;;;;;;;5.30;4.00;;;;;;;;;;108236;1262;39785;-40
2023/07/13 13:03:55;;;;;;;6.80;4.50;;;;;;;;;;108252;1272;40927;-40
2023/07/13 13:06:31;;;;;;;5.90;4.00;;;;;;;;;;108192;1257;40303;-40
2023/07/13 13:09:06;;;;;;;6.40;4.30;;;;;;;;;;108253;1257;38587;-41
2023/07/13 13:11:41;;;;;;;6.60;4.30;;;;;;;;;;108186;1257;40427;-42
2023/07/13 13:14:15;;;;;;;5.50;4.30;;;;;;;;;;108183;1263;40880;-42
2023/07/13 13:16:52;;;;;;;5.80;4.20;;;;;;;;;;108162;1259;40018;-39
2023/07/13 13:19:31;;;;;;;7.20;4.30;;;;;;;;;;108120;1257;38732;-40
2023/07/13 13:22:06;;;;;;;6.10;4.30;;;;;;;;;;108106;1274;39865;-39
2023/07/13 13:24:44;;;;;;;6.00;4.10;;;;;;;;;;108034;1272;40834;-38
2023/07/13 13:27:24;;;;;;;6.10;4.10;;;;;;;;;;108052;1259;39910;-40
2023/07/13 13:29:59;;;;;;;5.60;4.00;;;;;;;;;;108124;1270;38991;-39
2023/07/13 13:32:33;;;;;;;5.80;4.10;;;;;;;;;;108085;1259;40091;-39
2023/07/13 13:35:13;;;;;;;5.60;3.90;;;;;;;;;;107888;1264;175430;-38
2023/07/13 13:37:50;;;;;;;7.10;4.60;;;;;;;;;;108068;1262;40031;-39
2023/07/13 13:40:26;;;;;;;7.10;4.50;;;;;;;;;;108201;1262;38768;-39
2023/07/13 13:43:01;;;;;;;6.40;4.40;;;;;;;;;;108149;1272;40119;-39
2023/07/13 13:45:35;;;;;;;6.60;4.60;;;;;;;;;;108141;1262;40725;-38
2023/07/13 13:48:16;;;;;;;6.00;4.50;;;;;;;;;;108113;1262;40056;-39
2023/07/13 13:50:51;;;;;;;6.80;4.50;;;;;;;;;;108188;1259;39121;-37
2023/07/13 13:53:25;;;;;;;6.70;4.70;;;;;;;;;;108105;1272;40257;-38
2023/07/13 13:56:00;;;;;;;6.50;4.70;;;;;;;;;;108130;1259;40774;-39
2023/07/13 13:58:36;;;;;;;6.40;5.00;;;;;;;;;;108054;1262;39678;-38
2023/07/13 14:01:24;;;;;;;6.70;4.60;;;;;;;;;;108127;1263;38751;-39
2023/07/13 14:03:59;;;;;;;6.70;4.70;;;;;;;;;;108103;1263;40212;-39
2023/07/13 14:06:34;;;;;;;6.90;5.30;;;;;;;;;;108080;1272;40970;-39
2023/07/13 14:09:11;;;;;;;6.90;5.50;;;;;;;;;;108026;1260;40046;-39
2023/07/13 14:11:46;;;;;;;7.10;5.10;;;;;;;;;;107987;1272;39009;-39
2023/07/13 14:14:27;;;;;;;7.30;4.80;;;;;;;;;;107989;1275;40071;-38
2023/07/13 14:17:04;;;;;;;6.70;5.10;;;;;;;;;;108003;1268;40757;-38
2023/07/13 14:19:39;;;;;;;7.50;4.80;;;;;;;;;;108053;1263;40054;-38
2023/07/13 14:22:13;;;;;;;6.40;4.80;;;;;;;;;;108073;1275;38708;-38
2023/07/13 14:24:48;;;;;;;6.20;4.80;;;;;;;;;;108089;1274;40251;-39
2023/07/13 14:27:23;;;;;;;6.40;4.90;;;;;;;;;;108112;1269;40966;-39
2023/07/13 14:29:57;;;;;;;6.50;4.40;;;;;;;;;;107951;1264;46851;-39
2023/07/13 14:32:31;;;;;;;6.60;5.10;;;;;;;;;;107974;1276;38895;-38
2023/07/13 14:35:08;;;;;;;6.60;5.00;;;;;;;;;;107997;1276;40292;-39
2023/07/13 14:37:46;;;;;;;7.00;5.10;;;;;;;;;;108000;1264;40563;-39
2023/07/13 14:40:26;;;;;;;6.80;5.00;;;;;;;;;;108139;1264;46431;-39
2023/07/13 14:43:00;;;;;;;8.00;5.20;;;;;;;;;;108018;1275;38829;-39
2023/07/13 14:45:35;;;;;;;6.30;4.80;;;;;;;;;;107980;1275;40351;-37
2023/07/13 14:48:19;;;;;;;6.60;4.90;;;;;;;;;;107983;1271;40975;-42
2023/07/13 14:50:58;;;;;;;8.10;5.00;;;;;;;;;;107997;1272;46881;-38
2023/07/13 14:53:32;;;;;;;6.20;4.90;;;;;;;;;;108010;1273;38834;-37
2023/07/13 14:56:13;;;;;;;8.30;5.90;;;;;;;;;;107882;1268;40150;-37
2023/07/13 14:58:47;;;;;;;7.80;5.70;;;;;;;;;;107944;1275;41205;-39
2023/07/13 15:01:22;;;;;;;8.10;5.50;;;;;;;;;;107962;1271;40087;-42
2023/07/13 15:03:57;;;;;;;7.30;5.10;;;;;;;;;;107970;1271;39289;-42
2023/07/13 15:06:32;;;;;;;7.30;5.60;;;;;;;;;;107989;1264;40008;-40
2023/07/13 15:09:08;;;;;;;6.80;5.30;;;;;;;;;;107919;1260;42082;-39
2023/07/13 15:11:42;;;;;;;6.80;4.90;;;;;;;;;;107978;1265;42611;-44
2023/07/13 15:14:16;;;;;;;6.80;5.30;;;;;;;;;;107982;1269;39791;-37
2023/07/13 15:16:53;;;;;;;7.20;5.20;;;;;;;;;;107939;1272;40324;-41
2023/07/13 15:19:28;;;;;;;6.50;4.90;;;;;;;;;;107829;1259;175453;-40
2023/07/13 15:22:03;;;;;;;6.60;5.00;;;;;;;;;;108003;1269;39941;-40
2023/07/13 15:24:38;;;;;;;7.10;5.10;;;;;;;;;;108012;1264;39368;-40
2023/07/13 15:27:14;;;;;;;6.70;5.10;;;;;;;;;;107974;1264;40188;-36
2023/07/13 15:29:48;;;;;;;7.20;5.20;;;;;;;;;;107970;1260;40747;-36